createdAt,value
2019-01-23T00:01:05.544Z,8.3
2019-01-23T00:04:05.840Z,8.2
2019-01-23T00:07:05.549Z,8.2
2019-01-23T00:10:05.376Z,7.8
2019-01-23T00:13:05.825Z,8
2019-01-23T00:16:05.865Z,8.8
2019-01-23T00:19:05.460Z,8.5
2019-01-23T00:22:05.822Z,8.6
2019-01-23T00:25:05.608Z,8.5
2019-01-23T00:28:06.207Z,7.6
2019-01-23T00:31:05.867Z,7.6
2019-01-23T00:34:05.447Z,7.8
2019-01-23T00:37:05.766Z,8.5
2019-01-23T00:40:05.695Z,8.5
2019-01-23T00:43:05.390Z,7.7
2019-01-23T00:46:05.787Z,8.3
2019-01-23T00:49:05.497Z,7.5
2019-01-23T00:52:05.587Z,8.6
2019-01-23T00:55:05.697Z,7.6
2019-01-23T00:58:05.641Z,7.9
2019-01-23T01:01:05.582Z,7.5
2019-01-23T01:04:05.484Z,7.3
2019-01-23T01:07:05.837Z,7.8
2019-01-23T01:10:05.799Z,8.2
2019-01-23T01:13:05.697Z,7.1
2019-01-23T01:16:05.600Z,7.5
2019-01-23T01:19:05.871Z,7.4
2019-01-23T01:22:07.414Z,7.7
2019-01-23T01:25:06.227Z,7.4
2019-01-23T01:28:05.859Z,7.4
2019-01-23T01:31:05.395Z,7.6
2019-01-23T01:34:05.483Z,7.1
2019-01-23T01:37:05.544Z,7.3
2019-01-23T01:40:05.805Z,7.6
2019-01-23T01:43:05.962Z,7
2019-01-23T01:46:05.695Z,7
2019-01-23T01:49:05.788Z,7.2
2019-01-23T01:52:05.787Z,7.4
2019-01-23T01:55:05.763Z,7.7
2019-01-23T01:58:10.757Z,6.8
2019-01-23T02:01:05.477Z,7.1
2019-01-23T02:04:05.923Z,7.3
2019-01-23T02:07:05.936Z,6.7
2019-01-23T02:10:07.062Z,7.5
2019-01-23T02:13:07.120Z,7.2
2019-01-23T02:16:07.064Z,6.6
2019-01-23T02:19:07.071Z,6.6
2019-01-23T02:22:05.870Z,7
2019-01-23T02:25:05.435Z,7
2019-01-23T02:28:05.522Z,7.2
2019-01-23T02:31:05.720Z,6.8
2019-01-23T02:34:05.472Z,6.7
2019-01-23T02:37:05.843Z,7
2019-01-23T02:40:05.435Z,6.9
2019-01-23T02:43:05.784Z,6.8
2019-01-23T02:46:05.824Z,6.6
2019-01-23T02:49:05.853Z,6.8
2019-01-23T02:52:05.478Z,7.5
2019-01-23T02:55:05.912Z,6.5
2019-01-23T02:58:05.533Z,6.9
2019-01-23T03:01:05.814Z,7.5
2019-01-23T03:04:05.842Z,7
2019-01-23T03:07:07.375Z,6.3
2019-01-23T03:10:05.813Z,6.6
2019-01-23T03:13:05.849Z,6.9
2019-01-23T03:16:05.884Z,6.4
2019-01-23T03:19:05.846Z,6.7
2019-01-23T03:22:05.799Z,6.9
2019-01-23T03:25:05.755Z,6.8
2019-01-23T03:28:05.535Z,7
2019-01-23T03:31:05.939Z,6.8
2019-01-23T03:34:05.481Z,6.7
2019-01-23T03:37:05.859Z,6.8
2019-01-23T03:40:05.680Z,6.9
2019-01-23T03:43:05.865Z,6.6
2019-01-23T03:46:05.553Z,6.9
2019-01-23T03:49:05.483Z,6.5
2019-01-23T03:52:05.446Z,6.4
2019-01-23T03:55:05.635Z,6.9
2019-01-23T03:58:05.516Z,6.4
2019-01-23T04:01:05.401Z,6.7
2019-01-23T04:04:05.458Z,6.7
2019-01-23T04:07:11.098Z,6.9
2019-01-23T04:10:07.316Z,6.4
2019-01-23T04:13:06.049Z,6.6
2019-01-23T04:16:05.855Z,6.4
2019-01-23T04:19:05.705Z,6.7
2019-01-23T04:22:05.647Z,6.6
2019-01-23T04:25:05.919Z,6.8
2019-01-23T04:28:05.464Z,6.6
2019-01-23T04:31:05.461Z,6.4
2019-01-23T04:34:05.494Z,6.6
2019-01-23T04:37:05.396Z,6.5
2019-01-23T04:40:05.706Z,6.4
2019-01-23T04:43:05.367Z,6.3
2019-01-23T04:46:05.462Z,6.6
2019-01-23T04:49:05.485Z,6.2
2019-01-23T04:52:05.322Z,6.1
2019-01-23T04:55:05.444Z,6.4
2019-01-23T04:58:05.628Z,6.2
2019-01-23T05:01:05.664Z,5.7
2019-01-23T05:04:05.372Z,6.3
2019-01-23T05:07:05.611Z,6
2019-01-23T05:10:05.349Z,6.1
2019-01-23T05:13:05.319Z,6.4
2019-01-23T05:16:05.681Z,6.3
2019-01-23T05:19:05.371Z,5.6
2019-01-23T05:22:05.413Z,5.5
2019-01-23T05:25:08.767Z,5.4
2019-01-23T05:28:05.753Z,5.5
2019-01-23T05:31:05.517Z,6.3
2019-01-23T05:34:05.551Z,5.2
2019-01-23T05:37:05.664Z,5.4
2019-01-23T05:40:05.553Z,5.4
2019-01-23T05:43:05.938Z,5.4
2019-01-23T05:46:06.012Z,5.4
2019-01-23T05:49:05.387Z,5.1
2019-01-23T05:52:05.499Z,5.3
2019-01-23T05:55:05.592Z,5.2
2019-01-23T05:58:05.937Z,5.1
2019-01-23T06:01:06.492Z,5.4
2019-01-23T06:04:05.573Z,5
2019-01-23T06:07:05.675Z,5.1
2019-01-23T06:10:05.789Z,5.6
2019-01-23T06:13:06.154Z,5.3
2019-01-23T06:16:05.514Z,5.3
2019-01-23T06:19:05.881Z,5.1
2019-01-23T06:22:05.370Z,5
2019-01-23T06:25:06.109Z,5.2
2019-01-23T06:28:05.869Z,5.2
2019-01-23T06:31:05.438Z,4.9
2019-01-23T06:34:05.583Z,5.3
2019-01-23T06:37:05.263Z,4.9
2019-01-23T06:40:05.486Z,5.1
2019-01-23T06:43:05.991Z,5
2019-01-23T06:46:05.473Z,5.2
2019-01-23T06:49:05.899Z,5
2019-01-23T06:52:05.556Z,5.2
2019-01-23T06:55:05.968Z,5.2
2019-01-23T06:58:05.771Z,5
2019-01-23T07:01:05.689Z,5
2019-01-23T07:04:05.452Z,4.8
2019-01-23T07:07:06.862Z,4.7
2019-01-23T07:12:15.674Z,6.1
2019-01-23T07:15:15.265Z,5.5
2019-01-23T07:18:15.828Z,5.8
2019-01-23T07:21:15.892Z,8.6
2019-01-23T07:24:15.821Z,5.8
2019-01-23T07:27:15.485Z,6.5
2019-01-23T07:30:15.578Z,4.7
2019-01-23T07:33:15.772Z,5.8
2019-01-23T07:36:16.029Z,5.2
2019-01-23T07:39:15.794Z,5.4
2019-01-23T07:42:15.661Z,6.2
2019-01-23T07:45:15.797Z,4.9
2019-01-23T07:48:17.291Z,6
2019-01-23T07:51:15.386Z,6.3
2019-01-23T07:54:16.421Z,5.1
2019-01-23T07:57:15.386Z,4.6
2019-01-23T08:00:16.013Z,5
2019-01-23T08:03:15.420Z,4.9
2019-01-23T08:06:15.623Z,4.7
2019-01-23T08:09:15.752Z,6.5
2019-01-23T08:12:15.934Z,6.2
2019-01-23T08:15:15.681Z,4.7
2019-01-23T08:18:16.012Z,6
2019-01-23T08:21:15.950Z,6.6
2019-01-23T08:24:15.467Z,5
2019-01-23T08:27:15.565Z,6.5
2019-01-23T08:30:15.600Z,4.7
2019-01-23T08:33:15.719Z,4.8
2019-01-23T08:36:17.353Z,5.1
2019-01-23T08:39:15.422Z,4.8
2019-01-23T08:42:15.882Z,5.1
2019-01-23T08:45:15.532Z,5.7
2019-01-23T08:48:15.413Z,9.6
2019-01-23T08:51:15.522Z,5.3
2019-01-23T08:54:15.543Z,6.8
2019-01-23T08:57:15.470Z,5.8
2019-01-23T09:00:15.425Z,4.8
2019-01-23T09:03:15.384Z,5.3
2019-01-23T09:06:15.759Z,5.2
2019-01-23T09:09:16.155Z,5.6
2019-01-23T09:12:16.930Z,5.9
2019-01-23T09:15:15.725Z,5.6
2019-01-23T09:18:15.728Z,5
2019-01-23T09:21:16.060Z,4.8
2019-01-23T09:24:15.920Z,5.7
2019-01-23T09:27:15.603Z,4.9
2019-01-23T09:30:16.453Z,5.1
2019-01-23T09:33:15.533Z,17.5
2019-01-23T09:36:15.893Z,5.5
2019-01-23T09:39:16.421Z,6
2019-01-23T09:42:16.129Z,10.1
2019-01-23T09:45:15.466Z,6.3
2019-01-23T09:48:15.339Z,8.6
2019-01-23T09:51:15.380Z,6.5
2019-01-23T09:54:15.363Z,5.7
2019-01-23T09:57:15.413Z,7.7
2019-01-23T10:02:24.276Z,6.3
2019-01-23T10:05:23.241Z,6.6
2019-01-23T10:08:22.887Z,6.2
2019-01-23T10:11:24.514Z,5.1
2019-01-23T10:14:22.975Z,6.4
2019-01-23T10:17:22.928Z,5.2
2019-01-23T10:20:22.793Z,5.4
2019-01-23T10:23:22.832Z,6.3
2019-01-23T10:26:22.371Z,6
2019-01-23T10:29:22.699Z,5.2
2019-01-23T10:32:23.064Z,5.5
2019-01-23T10:35:22.746Z,5.8
2019-01-23T10:38:22.565Z,5.2
2019-01-23T10:41:22.879Z,5.3
2019-01-23T10:44:22.806Z,6.1
2019-01-23T10:47:22.786Z,5.1
2019-01-23T10:50:22.515Z,5.5
2019-01-23T10:53:22.960Z,5.2
2019-01-23T10:56:22.812Z,5.1
2019-01-23T10:59:22.726Z,5.9
2019-01-23T11:02:23.035Z,5.1
2019-01-23T11:05:22.962Z,5.1
2019-01-23T11:08:24.479Z,5.1
2019-01-23T11:11:23.242Z,5.2
2019-01-23T11:14:23.136Z,6.1
2019-01-23T11:17:23.019Z,5.2
2019-01-23T11:20:22.882Z,5
2019-01-23T11:23:22.391Z,5
2019-01-23T11:26:22.810Z,5
2019-01-23T11:29:22.760Z,5.2
2019-01-23T11:32:23.039Z,6.1
2019-01-23T11:35:22.787Z,5.5
2019-01-23T11:38:22.466Z,4.8
2019-01-23T11:41:23.172Z,5.2
2019-01-23T11:44:23.642Z,4.8
2019-01-23T11:47:22.600Z,5.2
2019-01-23T11:50:23.451Z,8.7
2019-01-23T11:53:22.692Z,8.1
2019-01-23T11:56:22.500Z,8.6
2019-01-23T11:59:22.866Z,6.6
2019-01-23T12:02:22.674Z,5.9
2019-01-23T12:05:23.393Z,5.8
2019-01-23T12:08:23.142Z,5.5
2019-01-23T12:11:22.752Z,5.6
2019-01-23T12:14:22.799Z,5.6
2019-01-23T12:17:22.477Z,5
2019-01-23T12:20:22.352Z,5.5
2019-01-23T12:23:22.463Z,5.3
2019-01-23T12:26:22.309Z,5
2019-01-23T12:29:22.694Z,5.2
2019-01-23T12:32:22.846Z,5
2019-01-23T12:35:22.816Z,5.7
2019-01-23T12:38:22.883Z,5.2
2019-01-23T12:41:22.439Z,4.9
2019-01-23T12:44:22.968Z,5.2
2019-01-23T12:47:22.775Z,5.1
2019-01-23T12:50:22.494Z,5.5
2019-01-23T12:53:24.299Z,5.2
2019-01-23T12:56:22.514Z,5.3
2019-01-23T12:59:22.766Z,4.8
2019-01-23T13:02:22.385Z,4.9
2019-01-23T13:05:22.321Z,6.1
2019-01-23T13:08:22.792Z,5.4
2019-01-23T13:11:22.734Z,5.2
2019-01-23T13:14:23.263Z,5.8
2019-01-23T13:17:23.669Z,7.9
2019-01-23T13:20:22.571Z,6.3
2019-01-23T13:23:22.343Z,5.2
2019-01-23T13:26:22.774Z,5.4
2019-01-23T13:29:23.457Z,5.5
2019-01-23T13:32:22.903Z,6.2
2019-01-23T13:35:23.026Z,5.6
2019-01-23T13:38:22.492Z,5.3
2019-01-23T13:41:22.469Z,7
2019-01-23T13:44:23.042Z,6.2
2019-01-23T13:47:22.698Z,6.6
2019-01-23T13:50:22.293Z,5.7
2019-01-23T13:53:23.174Z,7.9
2019-01-23T13:56:22.533Z,10.6
2019-01-23T13:59:22.286Z,7.5
2019-01-23T14:02:22.251Z,7
2019-01-23T14:05:22.951Z,6.1
2019-01-23T14:08:22.431Z,5.7
2019-01-23T14:11:22.862Z,6.1
2019-01-23T14:14:22.767Z,6.3
2019-01-23T14:17:23.317Z,7.5
2019-01-23T14:20:22.572Z,8.4
2019-01-23T14:23:23.048Z,6.2
2019-01-23T14:26:23.012Z,9.5
2019-01-23T14:29:22.318Z,6.1
2019-01-23T14:32:22.895Z,7
2019-01-23T14:35:22.695Z,6.4
2019-01-23T14:38:22.999Z,6.2
2019-01-23T14:41:23.250Z,6.3
2019-01-23T14:44:22.911Z,6.7
2019-01-23T14:47:22.912Z,7.2
2019-01-23T14:50:22.457Z,6.1
2019-01-23T14:53:22.425Z,6.2
2019-01-23T14:56:22.873Z,6.2
2019-01-23T14:59:22.483Z,6.2
2019-01-23T15:02:22.507Z,7.8
2019-01-23T15:05:23.020Z,5.5
2019-01-23T15:08:22.917Z,6.3
2019-01-23T15:11:22.491Z,6.3
2019-01-23T15:14:22.838Z,8.2
2019-01-23T15:17:22.693Z,7.2
2019-01-23T15:20:22.802Z,5.9
2019-01-23T15:23:23.242Z,5.8
2019-01-23T15:26:22.825Z,6.5
2019-01-23T15:29:22.415Z,5.7
2019-01-23T15:32:22.303Z,6.8
2019-01-23T15:35:22.756Z,8
2019-01-23T15:38:22.306Z,5.1
2019-01-23T15:41:22.723Z,5.6
2019-01-23T15:44:22.294Z,5.8
2019-01-23T15:47:22.349Z,6.1
2019-01-23T15:50:22.374Z,6
2019-01-23T15:53:22.582Z,6.5
2019-01-23T15:56:22.687Z,5.8
2019-01-23T15:59:22.611Z,5.8
2019-01-23T16:02:24.871Z,5.4
2019-01-23T16:05:22.314Z,5.1
2019-01-23T16:08:22.530Z,6.8
2019-01-23T16:11:22.947Z,7.1
2019-01-23T16:14:22.466Z,5.5
2019-01-23T16:17:23.121Z,5.3
2019-01-23T16:20:23.358Z,6.4
2019-01-23T16:23:22.860Z,5.8
2019-01-23T16:26:23.071Z,5.7
2019-01-23T16:29:22.228Z,5.5
2019-01-23T16:32:22.623Z,5.9
2019-01-23T16:35:24.675Z,5.5
2019-01-23T16:38:22.663Z,6.2
2019-01-23T16:41:22.435Z,6.9
2019-01-23T16:44:22.993Z,6.9
2019-01-23T16:47:24.715Z,5.8
2019-01-23T16:50:22.772Z,14
2019-01-23T16:53:22.369Z,6.4
2019-01-23T16:56:24.432Z,6.3
2019-01-23T16:59:22.800Z,7.8
2019-01-23T17:02:22.947Z,7.4
2019-01-23T17:05:22.552Z,6.3
2019-01-23T17:08:22.402Z,7.6
2019-01-23T17:11:22.889Z,6.4
2019-01-23T17:14:22.535Z,6.1
2019-01-23T17:17:22.957Z,6.3
2019-01-23T17:20:22.768Z,6.2
2019-01-23T17:23:22.455Z,6.7
2019-01-23T17:26:23.391Z,7.2
2019-01-23T17:29:22.596Z,6.4
2019-01-23T17:32:22.750Z,6.8
2019-01-23T17:35:23.188Z,6.2
2019-01-23T17:38:23.056Z,6.1
2019-01-23T17:41:22.758Z,6.3
2019-01-23T17:44:22.834Z,6.3
2019-01-23T17:47:22.844Z,6.6
2019-01-23T17:50:23.887Z,6.1
2019-01-23T17:53:23.559Z,6.4
2019-01-23T17:56:22.591Z,6.2
2019-01-23T17:59:24.340Z,6.6
2019-01-23T18:02:22.583Z,8.5
2019-01-23T18:05:22.472Z,7.5
2019-01-23T18:08:22.404Z,6.6
2019-01-23T18:11:22.237Z,6.3
2019-01-23T18:14:22.347Z,6.6
2019-01-23T18:17:22.505Z,7.2
2019-01-23T18:20:29.593Z,7.3
2019-01-23T18:23:22.936Z,6.9
2019-01-23T18:26:22.778Z,7.1
2019-01-23T18:29:22.368Z,6.5
2019-01-23T18:32:22.744Z,8.5
2019-01-23T18:35:23.361Z,7.1
2019-01-23T18:38:22.845Z,6.6
2019-01-23T18:41:25.171Z,7.4
2019-01-23T18:44:22.401Z,6.8
2019-01-23T18:47:23.496Z,6.6
2019-01-23T18:50:22.697Z,6.7
2019-01-23T18:53:22.406Z,6.6
2019-01-23T18:56:22.395Z,6.1
2019-01-23T18:59:22.745Z,6.5
2019-01-23T19:02:22.495Z,6.9
2019-01-23T19:05:22.500Z,7.1
2019-01-23T19:08:22.825Z,6.6
2019-01-23T19:11:23.996Z,6.9
2019-01-23T19:14:25.035Z,6.4
2019-01-23T19:17:22.477Z,6.4
2019-01-23T19:20:23.652Z,6.7
2019-01-23T19:23:22.456Z,7.1
2019-01-23T19:26:22.749Z,7
2019-01-23T19:29:23.447Z,6.9
2019-01-23T19:32:23.860Z,6.5
2019-01-23T19:35:24.445Z,6.3
2019-01-23T19:38:22.825Z,6.6
2019-01-23T19:41:22.229Z,6.3
2019-01-23T19:44:22.256Z,6.6
2019-01-23T19:47:24.495Z,6.6
2019-01-23T19:50:22.369Z,6.5
2019-01-23T19:53:24.526Z,7.1
2019-01-23T19:56:24.233Z,7.5
2019-01-23T19:59:22.463Z,6.9
2019-01-23T20:02:22.274Z,8.5
2019-01-23T20:05:24.246Z,8.4
2019-01-23T20:08:22.881Z,6.7
2019-01-23T20:11:23.221Z,7.1
2019-01-23T20:14:23.898Z,6.9
2019-01-23T20:17:24.282Z,6.9
2019-01-23T20:20:23.043Z,9.6
2019-01-23T20:23:23.404Z,7.2
2019-01-23T20:26:22.155Z,6.6
2019-01-23T20:29:22.247Z,8.5
2019-01-23T20:32:22.576Z,7.9
2019-01-23T20:35:22.395Z,8.7
2019-01-23T20:38:22.423Z,12.3
2019-01-23T20:41:22.475Z,11.7
2019-01-23T20:44:22.416Z,9.3
2019-01-23T20:47:22.481Z,7.7
2019-01-23T20:50:23.578Z,8.3
2019-01-23T20:53:22.562Z,9.4
2019-01-23T20:56:22.949Z,11.4
2019-01-23T20:59:22.501Z,11.7
2019-01-23T21:02:22.506Z,12.6
2019-01-23T21:05:22.421Z,12.8
2019-01-23T21:08:23.035Z,10.4
2019-01-23T21:11:22.783Z,11.3
2019-01-23T21:14:22.541Z,9.8
2019-01-23T21:17:22.958Z,10.7
2019-01-23T21:20:22.577Z,9.1
2019-01-23T21:23:22.680Z,12.4
2019-01-23T21:26:22.658Z,9.6
2019-01-23T21:29:22.645Z,9.5
2019-01-23T21:32:22.940Z,7.9
2019-01-23T21:35:22.662Z,9.4
2019-01-23T21:38:22.320Z,9.4
2019-01-23T21:41:22.820Z,8.6
2019-01-23T21:44:22.384Z,11
2019-01-23T21:47:22.940Z,9.4
2019-01-23T21:50:23.034Z,10
2019-01-23T21:53:22.266Z,9.8
2019-01-23T21:56:22.178Z,7.9
2019-01-23T21:59:22.451Z,7.7
2019-01-23T22:02:22.232Z,8.4
2019-01-23T22:05:22.285Z,9.5
2019-01-23T22:08:22.542Z,8.4
2019-01-23T22:11:28.037Z,8.2
2019-01-23T22:14:22.480Z,8
2019-01-23T22:17:22.226Z,7.9
2019-01-23T22:20:22.556Z,8.6
2019-01-23T22:23:22.532Z,8.2
2019-01-23T22:26:22.366Z,8.1
2019-01-23T22:29:22.248Z,8
2019-01-23T22:32:22.400Z,8
2019-01-23T22:35:22.020Z,9.1
2019-01-23T22:38:22.778Z,8.7
2019-01-23T22:41:22.192Z,8.3
2019-01-23T22:44:23.184Z,7.9
2019-01-23T22:47:22.745Z,8.2
2019-01-23T22:50:22.617Z,8.7
2019-01-23T22:53:22.351Z,9.4
2019-01-23T22:56:22.542Z,9.5
2019-01-23T22:59:22.460Z,9.2
2019-01-23T23:02:25.890Z,8.1
2019-01-23T23:05:24.155Z,8.3
2019-01-23T23:08:22.111Z,8.6
2019-01-23T23:11:24.097Z,8.6
2019-01-23T23:14:23.497Z,9.7
2019-01-23T23:17:22.659Z,8.8
2019-01-23T23:20:22.930Z,8.2
2019-01-23T23:23:22.586Z,8.6
2019-01-23T23:26:24.781Z,8.5
2019-01-23T23:29:25.144Z,9
2019-01-23T23:32:23.114Z,7.9
2019-01-23T23:35:22.144Z,8.6
2019-01-23T23:38:22.193Z,8.7
2019-01-23T23:41:22.142Z,9.7
2019-01-23T23:44:22.283Z,9.1
2019-01-23T23:47:22.512Z,8.8
2019-01-23T23:50:22.215Z,8.8
2019-01-23T23:53:22.418Z,8.6
2019-01-23T23:56:22.273Z,8.7
2019-01-23T23:59:22.263Z,8.7
